Time;durP1;ratioP1;P1;durP2;ratioP2;P2;SDS_P1;SDS_P2;PMS_P1;PMS_P2;Temp;Humidity;BMP_temperature;BMP_pressure;BME280_temperature;BME280_humidity;BME280_pressure;Samples;Min_cycle;Max_cycle;Signal;HPM_P1;HPM_P2
2024/01/23 00:01:35;;;;;;;5.60;1.42;;;3.10;98.70;;;;;;20828269;28;20040;-45
2024/01/23 00:11:36;;;;;;;2.20;0.65;;;2.40;98.90;;;;;;20806743;28;20106;-44
2024/01/23 00:21:41;;;;;;;2.28;1.33;;;1.40;99.90;;;;;;20827032;28;21086;-45
2024/01/23 00:31:43;;;;;;;1.77;0.90;;;1.10;99.90;;;;;;20826020;28;20074;-43
2024/01/23 00:41:44;;;;;;;1.65;0.80;;;0.80;99.90;;;;;;20858864;28;20052;-42
2024/01/23 00:51:46;;;;;;;1.73;0.77;;;0.50;99.90;;;;;;20864969;28;21133;-45
2024/01/23 01:01:48;;;;;;;1.88;0.85;;;0.00;99.90;;;;;;20868511;28;20170;-45
2024/01/23 01:11:49;;;;;;;1.48;0.80;;;-0.30;99.90;;;;;;20882017;28;20055;-42
2024/01/23 01:21:51;;;;;;;2.75;0.70;;;-0.40;99.90;;;;;;20882188;28;20114;-43
2024/01/23 01:31:53;;;;;;;2.40;0.63;;;-0.50;99.90;;;;;;20881277;28;20123;-46
2024/01/23 01:41:58;;;;;;;1.67;0.60;;;-0.70;99.90;;;;;;20880021;28;20052;-43
2024/01/23 01:52:03;;;;;;;1.73;0.70;;;-1.00;99.90;;;;;;20876418;28;20116;-47
2024/01/23 02:02:07;;;;;;;1.13;0.55;;;-1.20;99.90;;;;;;20881093;28;20040;-43
2024/01/23 02:12:09;;;;;;;1.00;0.40;;;-1.20;99.90;;;;;;20875338;28;20160;-45
2024/01/23 02:22:11;;;;;;;1.95;0.60;;;-1.30;99.90;;;;;;20876607;28;20040;-43
2024/01/23 02:32:13;;;;;;;1.00;0.50;;;-1.30;99.90;;;;;;20875625;28;20917;-45
2024/01/23 02:42:15;;;;;;;0.98;0.35;;;-1.20;99.90;;;;;;20911140;28;20410;-43
2024/01/23 02:52:16;;;;;;;0.95;0.43;;;-1.30;99.90;;;;;;20915123;28;20066;-42
2024/01/23 03:02:18;;;;;;;0.82;0.20;;;-1.30;99.90;;;;;;20915940;28;20403;-45
2024/01/23 03:12:25;;;;;;;0.63;0.32;;;-1.40;99.90;;;;;;20895654;28;20078;-42
2024/01/23 03:22:27;;;;;;;1.42;0.35;;;-1.60;99.90;;;;;;20911765;28;21173;-42
2024/01/23 03:32:29;;;;;;;1.05;0.32;;;-1.50;99.90;;;;;;20910631;28;20040;-42
2024/01/23 03:42:31;;;;;;;0.10;0.05;;;-1.30;99.90;;;;;;20874145;28;20086;-44
2024/01/23 03:52:33;;;;;;;0.28;0.10;;;-1.20;99.90;;;;;;20872585;28;20044;-45
2024/01/23 04:02:37;;;;;;;1.40;0.30;;;-0.80;99.90;;;;;;20871687;28;20208;-44
2024/01/23 04:12:40;;;;;;;0.35;0.20;;;-0.50;99.90;;;;;;20868369;28;21479;-41
2024/01/23 04:22:42;;;;;;;1.02;0.40;;;-0.70;99.90;;;;;;20870955;28;20389;-46
2024/01/23 04:32:44;;;;;;;0.52;0.03;;;-0.80;99.90;;;;;;20869108;28;20037;-42
2024/01/23 04:42:46;;;;;;;0.50;0.03;;;-1.00;99.90;;;;;;20903895;28;20098;-43
2024/01/23 04:52:48;;;;;;;0.22;0.00;;;-0.70;99.90;;;;;;20907051;28;20990;-42
2024/01/23 05:02:50;;;;;;;0.10;0.00;;;-0.60;99.90;;;;;;20888393;28;20957;-41
2024/01/23 05:12:51;;;;;;;0.00;0.00;;;-0.60;99.90;;;;;;20906079;28;20543;-59
2024/01/23 05:22:53;;;;;;;0.52;0.10;;;-0.60;99.90;;;;;;20904648;28;20116;-44
2024/01/23 05:32:55;;;;;;;0.10;0.00;;;-0.70;99.80;;;;;;20906302;28;20098;-41
2024/01/23 05:42:57;;;;;;;0.32;0.10;;;-0.50;98.20;;;;;;20904468;28;20044;-42
2024/01/23 05:52:59;;;;;;;2.08;0.10;;;-0.40;97.40;;;;;;20913319;28;20447;-42
2024/01/23 06:03:01;;;;;;;0.05;0.00;;;-0.80;98.30;;;;;;20919629;28;20032;-44
2024/01/23 06:13:03;;;;;;;0.00;0.00;;;-0.60;97.30;;;;;;20918312;28;20101;-43
2024/01/23 06:23:04;;;;;;;0.00;0.00;;;-0.60;97.70;;;;;;20918607;28;20032;-42
2024/01/23 06:33:06;;;;;;;0.00;0.00;;;-0.30;96.60;;;;;;20916994;28;20312;-43
2024/01/23 06:43:14;;;;;;;1.45;0.00;;;0.10;95.70;;;;;;20915104;28;20059;-43
2024/01/23 06:53:16;;;;;;;0.05;0.00;;;0.00;95.20;;;;;;20916240;28;20070;-42
2024/01/23 07:03:18;;;;;;;0.08;0.00;;;0.30;94.70;;;;;;20885177;28;20066;-42
2024/01/23 07:13:20;;;;;;;0.00;0.00;;;0.40;95.00;;;;;;20910872;28;20521;-44
2024/01/23 07:23:21;;;;;;;0.10;0.10;;;0.70;95.00;;;;;;20908508;28;20959;-42
2024/01/23 07:33:27;;;;;;;0.10;0.00;;;0.60;95.10;;;;;;20909207;28;20035;-44
2024/01/23 07:43:29;;;;;;;0.00;0.00;;;0.50;95.60;;;;;;20910051;28;20493;-44
2024/01/23 07:53:32;;;;;;;0.10;0.00;;;0.80;95.20;;;;;;20905411;28;20039;-42
2024/01/23 08:03:34;;;;;;;0.52;0.20;;;1.30;94.50;;;;;;20909088;28;20039;-45
2024/01/23 08:13:36;;;;;;;0.55;0.13;;;2.20;93.90;;;;;;20908788;28;20062;-41
2024/01/23 08:23:37;;;;;;;0.10;0.00;;;3.00;93.30;;;;;;20906696;28;20550;-43
2024/01/23 08:33:43;;;;;;;1.75;0.43;;;4.30;89.60;;;;;;20904593;28;20032;-42
2024/01/23 08:43:48;;;;;;;0.52;0.10;;;5.40;89.90;;;;;;20863219;28;20123;-42
2024/01/23 08:53:51;;;;;;;1.08;0.20;;;6.20;79.50;;;;;;20864968;28;20040;-42
2024/01/23 09:03:53;;;;;;;0.40;0.10;;;6.60;77.70;;;;;;20864632;28;21194;-45
2024/01/23 09:13:55;;;;;;;0.10;0.00;;;6.70;75.50;;;;;;20863454;28;20040;-42
2024/01/23 09:23:57;;;;;;;0.10;0.00;;;7.60;70.50;;;;;;20868974;28;20097;-42
2024/01/23 09:33:58;;;;;;;0.10;0.00;;;7.90;68.70;;;;;;20881085;28;20113;-41
2024/01/23 09:44:01;;;;;;;0.10;0.00;;;8.20;68.20;;;;;;20878795;28;20040;-43
2024/01/23 09:54:03;;;;;;;0.05;0.00;;;8.50;65.60;;;;;;20858839;28;20493;-42
2024/01/23 10:04:06;;;;;;;0.95;0.00;;;8.60;67.20;;;;;;20875957;28;20092;-43
2024/01/23 10:14:09;;;;;;;0.00;0.00;;;8.90;65.20;;;;;;20874506;28;20447;-44
2024/01/23 10:24:11;;;;;;;0.20;0.00;;;8.60;65.20;;;;;;20875012;28;20117;-43
2024/01/23 10:34:16;;;;;;;0.10;0.00;;;8.90;65.20;;;;;;20873288;28;21522;-43
2024/01/23 10:44:21;;;;;;;0.05;0.00;;;9.10;63.20;;;;;;20873346;28;20401;-43
2024/01/23 10:54:30;;;;;;;0.00;0.00;;;8.90;64.90;;;;;;20871271;28;21076;-43
2024/01/23 11:04:33;;;;;;;0.00;0.00;;;9.20;62.20;;;;;;20870073;28;21202;-44
2024/01/23 11:14:52;;;;;;;0.00;0.00;;;9.50;62.50;;;;;;20858639;28;20040;-43
2024/01/23 11:24:54;;;;;;;0.10;0.00;;;9.40;60.50;;;;;;20870894;28;20097;-43
2024/01/23 11:35:11;;;;;;;0.05;0.00;;;9.50;61.10;;;;;;20867785;28;20113;-42
2024/01/23 11:45:29;;;;;;;1.55;0.85;;;9.40;61.10;;;;;;20866757;28;20145;-44
2024/01/23 11:55:31;;;;;;;1.92;0.82;;;9.90;67.60;;;;;;20865951;28;20073;-43
2024/01/23 12:05:36;;;;;;;3.05;0.57;;;9.60;69.40;;;;;;20865790;28;20092;-44
2024/01/23 12:15:38;;;;;;;0.50;0.28;;;10.60;65.10;;;;;;20866810;28;20028;-45
2024/01/23 12:25:40;;;;;;;0.25;0.17;;;10.80;62.10;;;;;;20865847;28;21079;-43
2024/01/23 12:35:44;;;;;;;2.35;0.20;;;10.70;62.70;;;;;;20858072;28;20044;-44
2024/01/23 12:45:52;;;;;;;0.22;0.10;;;10.90;61.20;;;;;;20903181;28;20032;-42
2024/01/23 12:55:55;;;;;;;1.05;0.22;;;10.00;59.00;;;;;;20902676;28;20040;-45
2024/01/23 13:05:56;;;;;;;0.10;0.00;;;8.50;61.40;;;;;;20928183;28;20044;-42
2024/01/23 13:15:58;;;;;;;0.68;0.20;;;8.40;61.00;;;;;;20928929;28;20044;-43
2024/01/23 13:26:00;;;;;;;0.63;0.10;;;8.30;60.90;;;;;;20928487;28;20040;-45
2024/01/23 13:36:02;;;;;;;0.43;0.10;;;8.00;62.20;;;;;;20917646;28;20048;-43
2024/01/23 13:46:04;;;;;;;0.10;0.00;;;7.80;62.00;;;;;;20887365;28;20040;-45
2024/01/23 13:56:06;;;;;;;1.75;0.10;;;7.80;61.50;;;;;;20886037;28;20100;-43
2024/01/23 14:06:09;;;;;;;0.50;0.15;;;7.50;63.90;;;;;;20887089;28;20040;-43
2024/01/23 14:16:11;;;;;;;0.85;0.05;;;7.40;62.70;;;;;;20876253;28;20134;-54
2024/01/23 14:26:12;;;;;;;0.38;0.10;;;7.20;63.70;;;;;;20876443;28;20453;-42
2024/01/23 14:36:14;;;;;;;0.57;0.13;;;7.20;64.50;;;;;;20870971;28;20048;-43
2024/01/23 14:46:19;;;;;;;0.28;0.10;;;7.10;64.10;;;;;;20871942;28;20602;-46
2024/01/23 14:56:25;;;;;;;0.17;0.08;;;6.90;63.50;;;;;;20870827;28;20113;-45
2024/01/23 15:06:27;;;;;;;0.20;0.10;;;6.80;64.20;;;;;;20871967;28;20044;-43
2024/01/23 15:16:29;;;;;;;1.85;0.05;;;6.60;65.70;;;;;;20870634;28;20040;-44
2024/01/23 15:26:31;;;;;;;0.20;0.00;;;6.20;69.20;;;;;;20867904;28;20897;-46
2024/01/23 15:36:33;;;;;;;0.85;0.10;;;5.30;74.20;;;;;;20867616;28;20048;-42
2024/01/23 15:46:34;;;;;;;0.30;0.10;;;4.00;78.50;;;;;;20866750;28;20651;-43
2024/01/23 15:56:36;;;;;;;0.43;0.00;;;3.40;81.30;;;;;;20867124;28;20036;-43
2024/01/23 16:06:38;;;;;;;0.40;0.10;;;3.00;82.70;;;;;;20867110;28;20503;-44
2024/01/23 16:16:40;;;;;;;0.20;0.10;;;2.50;84.20;;;;;;20864327;28;20086;-42
2024/01/23 16:26:42;;;;;;;0.10;0.10;;;2.20;83.20;;;;;;20862882;28;20035;-43
2024/01/23 16:36:44;;;;;;;0.30;0.10;;;2.20;83.30;;;;;;20878858;28;20128;-45
2024/01/23 16:46:45;;;;;;;0.20;0.10;;;2.30;83.80;;;;;;20870817;28;20048;-43
2024/01/23 16:56:48;;;;;;;0.20;0.10;;;2.30;81.30;;;;;;20886431;28;20098;-43
2024/01/23 17:06:49;;;;;;;0.32;0.03;;;2.30;80.70;;;;;;20905405;28;20764;-43
2024/01/23 17:16:54;;;;;;;0.68;0.00;;;2.30;81.30;;;;;;20886918;28;21372;-43
2024/01/23 17:26:56;;;;;;;0.85;0.00;;;2.20;84.40;;;;;;20907939;28;20028;-43
2024/01/23 17:36:58;;;;;;;0.45;0.10;;;2.20;82.00;;;;;;20892888;28;20101;-47
2024/01/23 17:46:59;;;;;;;0.63;0.10;;;2.30;82.30;;;;;;20870033;28;20656;-43
2024/01/23 17:57:01;;;;;;;0.30;0.10;;;2.20;82.30;;;;;;20879035;28;20040;-42
2024/01/23 18:07:03;;;;;;;0.75;0.10;;;1.90;85.10;;;;;;20860834;28;20098;-43
2024/01/23 18:17:05;;;;;;;3.53;0.10;;;1.50;88.60;;;;;;20883151;28;20117;-42
2024/01/23 18:27:07;;;;;;;0.65;0.00;;;1.50;85.70;;;;;;20880579;28;20036;-43
2024/01/23 18:37:09;;;;;;;0.32;0.10;;;1.60;89.10;;;;;;20876564;28;20190;-46
2024/01/23 18:47:11;;;;;;;0.13;0.00;;;1.40;86.60;;;;;;20876156;28;20039;-42
2024/01/23 18:57:13;;;;;;;0.40;0.00;;;1.70;86.10;;;;;;20858148;28;21001;-42
2024/01/23 19:07:15;;;;;;;0.43;0.08;;;1.60;87.80;;;;;;20874424;28;20044;-42
2024/01/23 19:17:16;;;;;;;0.73;0.00;;;1.20;89.20;;;;;;20871201;28;20044;-42
2024/01/23 19:27:19;;;;;;;0.30;0.10;;;1.00;90.50;;;;;;20873194;28;20032;-44
2024/01/23 19:37:21;;;;;;;0.13;0.10;;;0.90;91.00;;;;;;20886146;28;20052;-42
2024/01/23 19:47:23;;;;;;;0.00;0.00;;;1.00;91.40;;;;;;20913764;28;20035;-43
2024/01/23 19:57:25;;;;;;;0.40;0.10;;;0.90;91.10;;;;;;20910824;28;20085;-42
2024/01/23 20:07:27;;;;;;;0.30;0.00;;;1.00;91.20;;;;;;20912608;28;20036;-42
2024/01/23 20:17:39;;;;;;;0.43;0.10;;;0.90;90.90;;;;;;20909908;28;20032;-43
2024/01/23 20:27:42;;;;;;;0.08;0.00;;;1.00;91.20;;;;;;20910454;28;20089;-44
2024/01/23 20:37:44;;;;;;;0.80;0.10;;;0.80;91.40;;;;;;20829580;28;20576;-43
2024/01/23 20:47:46;;;;;;;0.30;0.10;;;0.80;91.30;;;;;;20791626;28;20040;-42
2024/01/23 20:57:48;;;;;;;0.35;0.10;;;0.70;91.60;;;;;;20794037;28;20040;-42
2024/01/23 21:07:51;;;;;;;0.55;0.00;;;0.50;92.10;;;;;;20811432;28;20032;-45
2024/01/23 21:17:53;;;;;;;0.68;0.10;;;0.70;91.80;;;;;;20906729;28;20040;-42
2024/01/23 21:27:55;;;;;;;3.22;0.10;;;0.70;91.90;;;;;;20923822;28;20039;-42
2024/01/23 21:37:59;;;;;;;1.92;0.10;;;0.70;92.10;;;;;;20922413;28;20675;-42
2024/01/23 21:48:02;;;;;;;0.20;0.08;;;0.60;91.60;;;;;;20922060;28;20090;-44
2024/01/23 21:58:04;;;;;;;0.10;0.00;;;0.70;91.30;;;;;;20920758;28;21117;-43
2024/01/23 22:08:06;;;;;;;0.05;0.03;;;0.80;91.40;;;;;;20916303;28;20485;-45
2024/01/23 22:18:08;;;;;;;0.00;0.00;;;0.80;91.80;;;;;;20919272;28;20032;-44
2024/01/23 22:28:10;;;;;;;0.22;0.10;;;1.00;91.90;;;;;;20919251;28;21062;-42
2024/01/23 22:38:12;;;;;;;0.10;0.00;;;0.70;92.10;;;;;;20897498;28;20052;-44
2024/01/23 22:48:14;;;;;;;1.95;0.00;;;0.50;91.70;;;;;;20917639;28;20054;-43
2024/01/23 22:58:16;;;;;;;0.30;0.00;;;0.60;92.00;;;;;;20915517;28;20739;-44
2024/01/23 23:08:19;;;;;;;0.73;0.00;;;0.80;92.30;;;;;;20916610;28;20677;-42
2024/01/23 23:18:21;;;;;;;0.10;0.00;;;1.10;92.90;;;;;;20912924;28;20044;-43
2024/01/23 23:28:22;;;;;;;0.35;0.00;;;1.20;92.90;;;;;;20913054;28;20121;-43
2024/01/23 23:38:27;;;;;;;0.55;0.05;;;0.80;92.10;;;;;;20913220;28;20044;-48
2024/01/23 23:48:28;;;;;;;0.65;0.10;;;0.60;91.50;;;;;;20899910;28;20040;-44
2024/01/23 23:58:31;;;;;;;0.22;0.10;;;0.50;92.50;;;;;;20913266;28;20036;-46
